Time;durP1;ratioP1;P1;durP2;ratioP2;P2;SDS_P1;SDS_P2;PMS_P1;PMS_P2;Temp;Humidity;BMP_temperature;BMP_pressure;BME280_temperature;BME280_humidity;BME280_pressure;Samples;Min_cycle;Max_cycle;Signal;HPM_P1;HPM_P2
2022/03/19 00:09:09;;;;;;;38.40;19.67;;;8.70;99.90;;;;;;20699932;28;20033;-72
2022/03/19 00:19:09;;;;;;;41.78;21.30;;;8.60;99.90;;;;;;20747166;28;20061;-73
2022/03/19 00:29:10;;;;;;;43.93;19.80;;;8.50;99.90;;;;;;20758945;28;20385;-73
2022/03/19 00:39:11;;;;;;;42.73;21.07;;;8.50;99.90;;;;;;20740822;28;20109;-73
2022/03/19 00:49:13;;;;;;;42.22;21.35;;;8.30;99.90;;;;;;20758704;28;20037;-73
2022/03/19 00:59:14;;;;;;;41.73;19.90;;;8.10;99.90;;;;;;20756741;28;20026;-72
2022/03/19 01:09:15;;;;;;;41.80;20.20;;;8.20;99.90;;;;;;20755926;28;20087;-73
2022/03/19 01:19:52;;;;;;;50.33;20.33;;;7.90;99.90;;;;;;20755173;28;20029;-73
2022/03/19 01:29:39;;;;;;;42.63;20.70;;;8.00;99.90;;;;;;20753050;28;20034;-73
2022/03/19 01:39:40;;;;;;;40.67;19.85;;;7.80;99.90;;;;;;20753498;28;20036;-73
2022/03/19 01:49:41;;;;;;;38.90;19.30;;;7.70;99.90;;;;;;20736079;28;20065;-73
2022/03/19 01:59:42;;;;;;;48.47;20.37;;;7.60;99.90;;;;;;20751966;28;20108;-73
2022/03/19 02:09:47;;;;;;;42.80;21.50;;;7.40;99.90;;;;;;20751350;28;20118;-74
2022/03/19 02:19:55;;;;;;;44.17;21.92;;;7.50;99.90;;;;;;20732948;28;20041;-74
2022/03/19 02:29:57;;;;;;;42.03;20.85;;;7.30;99.90;;;;;;20749710;28;20161;-74
2022/03/19 02:39:57;;;;;;;56.30;23.77;;;7.20;99.90;;;;;;20748527;28;20040;-73
2022/03/19 02:49:59;;;;;;;52.03;21.57;;;7.20;99.90;;;;;;20748413;28;20046;-73
2022/03/19 03:00:01;;;;;;;50.95;23.52;;;7.10;99.90;;;;;;20747299;28;20041;-73
2022/03/19 03:10:02;;;;;;;54.57;24.40;;;6.90;99.90;;;;;;20779511;23;20137;-74
2022/03/19 03:20:03;;;;;;;;;;;6.80;99.90;;;;;;20666908;28;20031;-76
2022/03/19 03:30:06;;;;;;;50.97;24.83;;;6.90;99.90;;;;;;20673680;28;19910;-75
2022/03/19 03:40:07;;;;;;;50.95;24.75;;;6.90;99.90;;;;;;20669069;28;20038;-76
2022/03/19 03:50:09;;;;;;;59.60;27.20;;;6.70;99.90;;;;;;20662476;28;20050;-76
2022/03/19 04:00:10;;;;;;;;;;;6.70;99.90;;;;;;20662887;28;20053;-76
2022/03/19 04:10:13;;;;;;;58.50;26.63;;;6.60;99.90;;;;;;20644499;28;19913;-75
2022/03/19 04:20:15;;;;;;;61.70;28.23;;;6.60;99.90;;;;;;20661659;28;20038;-75
2022/03/19 04:30:18;;;;;;;62.67;31.08;;;6.70;99.90;;;;;;20662106;28;20042;-75
2022/03/19 04:40:19;;;;;;;69.50;30.27;;;6.40;99.90;;;;;;20661115;28;20052;-76
2022/03/19 04:50:20;;;;;;;68.10;32.33;;;6.40;99.90;;;;;;20645433;28;20054;-75
2022/03/19 05:00:21;;;;;;;68.72;32.85;;;6.30;99.90;;;;;;20666545;28;20069;-75
2022/03/19 05:20:42;;;;;;;75.20;33.30;;;6.20;99.90;;;;;;20698285;28;20038;-74
2022/03/19 05:30:43;;;;;;;;;;;6.00;99.90;;;;;;20765173;28;20026;-75
2022/03/19 05:40:44;;;;;;;69.55;31.98;;;5.90;99.90;;;;;;20754092;28;20352;-75
2022/03/19 05:50:44;;;;;;;70.97;32.03;;;5.70;99.90;;;;;;20753091;28;20026;-75
2022/03/19 06:00:46;;;;;;;69.60;31.67;;;5.70;99.90;;;;;;20752146;28;20069;-76
2022/03/19 06:10:47;;;;;;;74.65;32.15;;;6.00;99.90;;;;;;20752604;28;20607;-76
2022/03/19 06:20:49;;;;;;;65.15;31.17;;;6.10;99.90;;;;;;20751300;28;20516;-76
2022/03/19 06:30:50;;;;;;;66.73;30.73;;;6.10;99.90;;;;;;20750213;28;20029;-77
2022/03/19 06:40:51;;;;;;;68.60;30.40;;;6.50;99.90;;;;;;20732507;28;20523;-76
2022/03/19 06:50:54;;;;;;;67.93;31.30;;;6.80;99.90;;;;;;20749295;28;20084;-77
2022/03/19 07:00:55;;;;;;;68.75;31.38;;;7.20;99.90;;;;;;20729006;28;20288;-76
2022/03/19 07:10:55;;;;;;;60.80;29.60;;;7.50;99.90;;;;;;20771383;28;20030;-77
2022/03/19 07:20:57;;;;;;;62.10;29.93;;;8.20;99.90;;;;;;20749875;28;20032;-77
2022/03/19 07:30:58;;;;;;;56.23;27.90;;;8.80;99.90;;;;;;20747447;28;20025;-77
2022/03/19 07:51:18;;;;;;;52.63;25.90;;;9.00;99.90;;;;;;20751253;28;20045;-78
2022/03/19 08:01:20;;;;;;;53.50;25.03;;;9.90;99.90;;;;;;20752542;28;20042;-79
2022/03/19 08:11:20;;;;;;;;;;;10.30;99.90;;;;;;20770345;28;20428;-78
2022/03/19 08:21:21;;;;;;;50.97;26.87;;;10.60;99.90;;;;;;20768329;28;19916;-78
2022/03/19 08:31:22;;;;;;;48.93;24.90;;;11.20;99.90;;;;;;20740875;28;20296;-79
2022/03/19 08:41:23;;;;;;;57.03;26.97;;;11.60;99.90;;;;;;20785864;28;20041;-80
2022/03/19 08:51:39;;;;;;;47.90;26.27;;;11.80;99.90;;;;;;20785623;28;20508;-80
2022/03/19 09:01:40;;;;;;;45.67;24.80;;;11.90;99.90;;;;;;20810206;23;20098;-73
2022/03/19 09:11:41;;;;;;;46.20;24.70;;;12.40;99.90;;;;;;20866402;28;20045;-73
2022/03/19 09:21:42;;;;;;;39.23;21.73;;;12.10;99.90;;;;;;20854297;28;20044;-73
2022/03/19 09:31:43;;;;;;;46.93;21.27;;;13.00;99.90;;;;;;20817259;28;20029;-73
2022/03/19 09:41:44;;;;;;;42.63;23.80;;;13.30;99.90;;;;;;20816080;28;20041;-73
2022/03/19 09:51:53;;;;;;;37.07;20.23;;;14.20;99.90;;;;;;20823909;28;20025;-73
2022/03/19 10:01:55;;;;;;;36.15;20.63;;;14.60;99.90;;;;;;20865416;28;20042;-73
2022/03/19 10:11:55;;;;;;;;;;;14.40;99.90;;;;;;20815227;28;20025;-73
2022/03/19 10:22:08;;;;;;;34.10;18.90;;;14.60;99.90;;;;;;20812032;28;19939;-73
2022/03/19 10:32:12;;;;;;;35.90;19.25;;;15.70;99.90;;;;;;20811814;28;20037;-73
2022/03/19 10:42:16;;;;;;;33.15;17.75;;;15.40;99.50;;;;;;20809223;28;20466;-73
2022/03/19 10:52:17;;;;;;;29.35;16.73;;;15.90;96.70;;;;;;20810515;28;20042;-73
2022/03/19 11:02:18;;;;;;;;;;;16.10;95.50;;;;;;20809860;28;20049;-73
2022/03/19 11:12:23;;;;;;;32.15;15.73;;;15.70;95.30;;;;;;20807217;28;19971;-73
2022/03/19 11:22:26;;;;;;;26.75;17.08;;;16.10;93.50;;;;;;20808498;28;20053;-73
2022/03/19 11:32:27;;;;;;;31.58;18.13;;;16.60;93.00;;;;;;20816157;28;20083;-74
2022/03/19 11:42:32;;;;;;;28.43;17.23;;;17.10;91.50;;;;;;20800937;28;20033;-74
2022/03/19 11:52:54;;;;;;;26.85;15.52;;;16.50;89.90;;;;;;20809661;28;20789;-74
2022/03/19 12:03:24;;;;;;;30.02;16.83;;;16.60;90.60;;;;;;20799896;28;20068;-73
2022/03/19 12:13:28;;;;;;;27.33;15.73;;;16.80;90.20;;;;;;20722552;28;20812;-76
2022/03/19 12:23:39;;;;;;;26.27;16.23;;;17.40;89.30;;;;;;20723231;28;20515;-75
2022/03/19 12:33:40;;;;;;;30.23;15.55;;;17.80;83.60;;;;;;20725577;28;20040;-75
2022/03/19 12:43:41;;;;;;;28.07;15.23;;;17.70;84.20;;;;;;20803882;28;20041;-75
2022/03/19 12:53:42;;;;;;;28.70;16.63;;;17.70;87.10;;;;;;20804304;28;20029;-75
2022/03/19 13:03:43;;;;;;;29.93;15.70;;;17.90;81.90;;;;;;20802072;28;20029;-75
2022/03/19 13:13:45;;;;;;;30.30;16.60;;;17.10;83.70;;;;;;20815783;28;20118;-75
2022/03/19 13:23:46;;;;;;;30.77;17.55;;;17.70;81.00;;;;;;20812651;28;20045;-73
2022/03/19 13:33:47;;;;;;;30.53;19.53;;;16.60;81.70;;;;;;20816991;28;20040;-74
2022/03/19 13:43:48;;;;;;;29.47;17.97;;;17.10;78.90;;;;;;20815624;28;20029;-74
2022/03/19 13:53:52;;;;;;;40.57;22.60;;;16.50;80.40;;;;;;20814965;28;20037;-74
2022/03/19 14:03:53;;;;;;;27.20;15.93;;;17.20;81.80;;;;;;20813468;28;20041;-75
2022/03/19 14:13:56;;;;;;;27.77;17.17;;;16.50;80.40;;;;;;20815056;28;20498;-75
2022/03/19 14:23:57;;;;;;;29.45;18.25;;;16.70;79.60;;;;;;20859054;28;20088;-74
2022/03/19 14:33:57;;;;;;;33.07;16.83;;;16.60;77.70;;;;;;20844828;28;20033;-75
2022/03/19 14:43:59;;;;;;;29.30;15.57;;;16.90;80.40;;;;;;20811061;28;20092;-74
2022/03/19 14:54:00;;;;;;;29.63;17.40;;;16.80;80.70;;;;;;20843972;28;20857;-75
2022/03/19 15:04:00;;;;;;;34.77;17.37;;;15.30;83.60;;;;;;20868475;28;20033;-74
2022/03/19 15:14:02;;;;;;;32.63;17.57;;;15.80;85.00;;;;;;20867411;28;20364;-75
2022/03/19 15:24:03;;;;;;;32.03;17.30;;;15.80;84.60;;;;;;20891141;28;20036;-73
2022/03/19 15:34:04;;;;;;;30.38;18.38;;;14.80;84.70;;;;;;20906974;28;20430;-74
2022/03/19 15:44:06;;;;;;;29.80;17.85;;;14.70;86.90;;;;;;20907983;28;20466;-75
2022/03/19 15:54:07;;;;;;;38.53;19.60;;;15.20;85.10;;;;;;20859707;28;20037;-74
2022/03/19 16:04:09;;;;;;;29.90;15.03;;;14.80;85.90;;;;;;20805481;28;20045;-73
2022/03/19 16:14:10;;;;;;;28.45;15.13;;;13.40;88.60;;;;;;20806201;28;20049;-73
2022/03/19 16:24:11;;;;;;;31.80;16.33;;;13.10;88.70;;;;;;20805089;28;20069;-73
2022/03/19 16:34:12;;;;;;;27.27;13.43;;;13.00;86.50;;;;;;20803109;28;20177;-73
2022/03/19 16:44:13;;;;;;;23.10;12.70;;;12.20;89.60;;;;;;20804385;28;20834;-74
2022/03/19 16:54:14;;;;;;;26.70;13.67;;;12.20;89.00;;;;;;20805994;28;20515;-73
2022/03/19 17:04:15;;;;;;;23.13;12.60;;;12.00;89.60;;;;;;20803767;28;21216;-73
2022/03/19 17:14:16;;;;;;;26.33;13.23;;;11.30;90.50;;;;;;20803301;28;20613;-73
2022/03/19 17:24:16;;;;;;;24.30;12.97;;;11.00;91.20;;;;;;20815791;28;20100;-74
2022/03/19 17:34:18;;;;;;;24.67;11.40;;;10.60;92.30;;;;;;20822095;28;20026;-73
2022/03/19 17:44:19;;;;;;;26.63;13.80;;;10.40;92.50;;;;;;20828928;28;20033;-73
2022/03/19 17:54:20;;;;;;;25.83;14.03;;;10.50;92.20;;;;;;20830217;28;20037;-73
2022/03/19 18:04:21;;;;;;;26.75;14.40;;;9.80;94.10;;;;;;20789830;28;1154104;-73
2022/03/19 18:14:22;;;;;;;27.33;14.03;;;9.40;93.80;;;;;;20833145;28;20055;-73
2022/03/19 18:24:23;;;;;;;29.70;14.97;;;9.30;94.10;;;;;;20833010;28;20108;-73
2022/03/19 18:34:24;;;;;;;27.80;14.73;;;8.90;94.90;;;;;;20831831;28;20492;-74
2022/03/19 18:44:25;;;;;;;30.40;15.50;;;8.70;95.50;;;;;;20830393;28;20037;-74
2022/03/19 18:54:26;;;;;;;29.30;15.35;;;8.60;95.90;;;;;;20829886;28;20044;-73
2022/03/19 19:04:27;;;;;;;32.03;14.47;;;8.40;96.40;;;;;;20828966;28;20037;-73
2022/03/19 19:14:28;;;;;;;26.10;11.73;;;8.10;96.50;;;;;;20827044;28;20064;-74
2022/03/19 19:24:29;;;;;;;34.23;15.73;;;8.00;96.90;;;;;;20827499;28;20033;-72
2022/03/19 19:34:30;;;;;;;28.87;16.17;;;7.80;97.50;;;;;;20827739;28;20065;-73
2022/03/19 19:44:31;;;;;;;28.50;15.53;;;7.50;98.00;;;;;;20826655;28;20373;-73
2022/03/19 19:54:41;;;;;;;;;;;7.30;98.60;;;;;;20825101;28;20404;-73
2022/03/19 20:04:42;;;;;;;28.83;15.23;;;7.20;98.90;;;;;;20856332;28;19948;-72
2022/03/19 20:14:43;;;;;;;31.43;15.13;;;7.00;99.50;;;;;;20851242;28;20076;-73
2022/03/19 20:24:45;;;;;;;29.57;14.07;;;7.10;98.90;;;;;;20827825;28;20040;-73
2022/03/19 20:34:46;;;;;;;27.55;13.70;;;7.00;98.90;;;;;;20888500;28;20503;-72
2022/03/19 20:44:48;;;;;;;24.80;13.52;;;6.80;99.60;;;;;;20921848;28;20037;-74
2022/03/19 20:54:48;;;;;;;26.10;13.57;;;6.70;99.50;;;;;;20920612;28;20033;-73
2022/03/19 21:04:49;;;;;;;25.50;12.63;;;6.50;99.90;;;;;;20904631;28;20778;-73
2022/03/19 21:14:50;;;;;;;27.80;13.10;;;6.40;99.90;;;;;;20846112;28;20033;-74
2022/03/19 21:24:51;;;;;;;21.63;11.57;;;6.20;99.90;;;;;;20836958;28;20044;-72
2022/03/19 21:34:52;;;;;;;24.67;13.00;;;6.10;99.90;;;;;;20836179;28;20034;-74
2022/03/19 21:44:53;;;;;;;26.95;12.35;;;6.00;99.90;;;;;;20835723;28;20164;-73
2022/03/19 21:54:54;;;;;;;26.55;13.40;;;5.90;99.90;;;;;;20832777;28;20033;-73
2022/03/19 22:04:55;;;;;;;25.03;12.53;;;5.80;99.90;;;;;;20832158;28;20087;-73
2022/03/19 22:14:56;;;;;;;29.33;13.43;;;5.60;99.90;;;;;;20833381;28;20123;-73
2022/03/19 22:24:58;;;;;;;;;;;5.40;99.90;;;;;;20833932;28;20423;-74
2022/03/19 22:34:59;;;;;;;28.50;14.02;;;5.30;99.90;;;;;;20831659;28;20383;-74
2022/03/19 22:45:00;;;;;;;31.03;13.07;;;4.80;99.90;;;;;;20831066;28;20083;-73
2022/03/19 22:55:01;;;;;;;32.03;14.70;;;4.50;99.90;;;;;;20829638;28;20650;-73
2022/03/19 23:05:02;;;;;;;34.55;14.80;;;4.40;99.90;;;;;;20829236;28;20034;-73
2022/03/19 23:15:05;;;;;;;39.05;16.58;;;4.30;99.90;;;;;;20846812;28;20546;-73
2022/03/19 23:25:06;;;;;;;35.33;16.08;;;4.80;99.90;;;;;;20833329;28;20525;-73
2022/03/19 23:45:27;;;;;;;33.40;15.35;;;4.40;99.90;;;;;;20862700;28;19916;-73
2022/03/19 23:55:28;;;;;;;39.13;18.38;;;4.30;99.90;;;;;;20863732;28;20435;-73
